createdAt,value
2017-12-16T00:01:08.838Z,3.66
2017-12-16T00:03:36.390Z,3.67
2017-12-16T00:06:03.940Z,3.51
2017-12-16T00:08:31.474Z,3.58
2017-12-16T00:10:59.011Z,3.56
2017-12-16T00:13:26.550Z,3.52
2017-12-16T00:15:54.085Z,3.54
2017-12-16T00:18:21.614Z,3.54
2017-12-16T00:20:49.147Z,3.56
2017-12-16T00:23:16.678Z,3.52
2017-12-16T00:25:44.232Z,3.52
2017-12-16T00:28:11.786Z,3.50
2017-12-16T00:30:39.337Z,3.53
2017-12-16T00:33:06.878Z,3.57
2017-12-16T00:35:34.428Z,3.56
2017-12-16T00:38:01.973Z,3.53
2017-12-16T00:40:29.511Z,3.55
2017-12-16T00:42:57.064Z,3.54
2017-12-16T00:45:24.594Z,3.51
2017-12-16T00:47:52.127Z,3.50
2017-12-16T00:50:19.662Z,3.47
2017-12-16T00:52:47.205Z,3.49
2017-12-16T00:55:14.749Z,3.51
2017-12-16T00:57:42.287Z,3.49
2017-12-16T01:00:09.826Z,3.52
2017-12-16T01:02:37.365Z,3.53
2017-12-16T01:05:04.901Z,3.50
2017-12-16T01:07:32.445Z,3.53
2017-12-16T01:09:59.986Z,3.51
2017-12-16T01:12:27.550Z,3.47
2017-12-16T01:14:55.098Z,3.45
2017-12-16T01:17:22.643Z,3.51
2017-12-16T01:19:50.189Z,3.49
2017-12-16T01:22:17.734Z,3.49
2017-12-16T01:24:45.265Z,3.44
2017-12-16T01:27:12.809Z,3.42
2017-12-16T01:29:40.341Z,3.38
2017-12-16T01:32:07.891Z,3.40
2017-12-16T01:37:48.981Z,3.40
2017-12-16T01:40:16.530Z,3.41
2017-12-16T01:42:44.060Z,3.29
2017-12-16T01:45:11.611Z,3.33
2017-12-16T01:47:39.158Z,3.37
2017-12-16T01:50:06.740Z,3.32
2017-12-16T01:52:34.292Z,3.32
2017-12-16T01:55:01.830Z,3.25
2017-12-16T01:57:29.374Z,3.24
2017-12-16T01:59:56.921Z,3.23
2017-12-16T02:02:24.470Z,3.21
2017-12-16T02:04:52.033Z,3.23
2017-12-16T02:07:19.570Z,3.19
2017-12-16T02:09:47.110Z,3.22
2017-12-16T02:12:14.658Z,3.26
2017-12-16T02:14:42.189Z,3.25
2017-12-16T02:17:09.734Z,3.27
2017-12-16T02:19:37.274Z,3.28
2017-12-16T02:22:04.814Z,3.28
2017-12-16T02:24:32.357Z,3.23
2017-12-16T02:26:59.890Z,3.24
2017-12-16T02:29:27.434Z,3.27
2017-12-16T02:31:54.978Z,3.26
2017-12-16T02:34:22.527Z,3.19
2017-12-16T02:36:50.073Z,3.14
2017-12-16T02:39:17.605Z,3.19
2017-12-16T02:41:45.143Z,3.19
2017-12-16T02:44:12.674Z,3.20
2017-12-16T02:46:40.225Z,3.19
2017-12-16T02:49:07.753Z,3.20
2017-12-16T02:51:35.299Z,3.21
2017-12-16T02:54:02.839Z,3.13
2017-12-16T02:56:30.390Z,3.14
2017-12-16T02:58:57.943Z,3.19
2017-12-16T03:01:25.482Z,3.15
2017-12-16T03:03:53.014Z,3.16
2017-12-16T03:06:20.565Z,3.20
2017-12-16T03:08:48.106Z,3.14
2017-12-16T03:11:15.646Z,3.22
2017-12-16T03:13:43.181Z,3.20
2017-12-16T03:16:10.710Z,3.24
2017-12-16T03:18:38.254Z,3.19
2017-12-16T03:21:05.797Z,3.20
2017-12-16T03:23:33.351Z,3.19
2017-12-16T03:26:00.899Z,3.12
2017-12-16T03:28:28.438Z,3.12
2017-12-16T03:30:55.980Z,3.17
2017-12-16T03:33:23.522Z,3.15
2017-12-16T03:35:51.053Z,3.12
2017-12-16T03:38:18.598Z,3.10
2017-12-16T03:40:46.121Z,3.19
2017-12-16T03:43:13.662Z,3.16
2017-12-16T03:45:41.198Z,3.15
2017-12-16T03:48:08.754Z,3.17
2017-12-16T03:50:36.301Z,3.12
2017-12-16T03:53:03.841Z,3.13
2017-12-16T03:55:31.377Z,3.15
2017-12-16T03:57:58.917Z,3.12
2017-12-16T04:00:26.458Z,3.14
2017-12-16T04:02:54.003Z,3.15
2017-12-16T04:05:21.595Z,3.16
2017-12-16T04:07:49.134Z,3.11
2017-12-16T04:10:16.693Z,3.09
2017-12-16T04:12:44.247Z,3.10
2017-12-16T04:15:11.807Z,3.11
2017-12-16T04:17:39.354Z,3.16
2017-12-16T04:20:06.886Z,3.12
2017-12-16T04:22:34.431Z,3.14
2017-12-16T04:25:01.982Z,3.07
2017-12-16T04:27:29.531Z,3.11
2017-12-16T04:29:57.089Z,3.15
2017-12-16T04:32:24.634Z,3.14
2017-12-16T04:34:52.182Z,3.14
2017-12-16T04:37:19.735Z,3.14
2017-12-16T04:39:47.291Z,3.09
2017-12-16T04:42:14.822Z,3.07
2017-12-16T04:44:42.358Z,3.05
2017-12-16T04:47:09.912Z,3.11
2017-12-16T04:49:37.470Z,3.08
2017-12-16T04:52:05.028Z,3.06
2017-12-16T04:54:32.562Z,3.10
2017-12-16T04:57:00.120Z,3.12
2017-12-16T04:59:27.661Z,3.08
2017-12-16T05:01:55.218Z,3.12
2017-12-16T05:04:22.762Z,3.11
2017-12-16T05:06:50.308Z,3.10
2017-12-16T05:09:17.850Z,3.13
2017-12-16T05:11:45.404Z,3.07
2017-12-16T05:14:12.951Z,3.13
2017-12-16T05:16:40.503Z,3.09
2017-12-16T05:19:08.054Z,3.08
2017-12-16T05:21:35.598Z,3.17
2017-12-16T05:24:03.149Z,3.11
2017-12-16T05:26:30.691Z,3.15
2017-12-16T05:28:58.226Z,3.18
2017-12-16T05:31:25.763Z,3.13
2017-12-16T05:33:53.311Z,3.14
2017-12-16T05:36:20.850Z,3.18
2017-12-16T05:38:48.399Z,3.21
2017-12-16T05:41:15.936Z,3.18
2017-12-16T05:43:43.480Z,3.18
2017-12-16T05:46:11.031Z,3.17
2017-12-16T05:48:38.565Z,3.15
2017-12-16T05:51:06.106Z,3.17
2017-12-16T05:53:33.647Z,3.16
2017-12-16T05:56:01.185Z,3.19
2017-12-16T05:58:28.726Z,3.19
2017-12-16T06:00:56.275Z,3.13
2017-12-16T06:03:23.832Z,3.16
2017-12-16T06:05:51.391Z,3.22
2017-12-16T06:08:18.943Z,3.14
2017-12-16T06:10:46.495Z,3.23
2017-12-16T06:13:14.039Z,3.23
2017-12-16T06:15:41.582Z,3.23
2017-12-16T06:18:09.131Z,3.20
2017-12-16T06:20:36.673Z,3.20
2017-12-16T06:23:04.202Z,3.24
2017-12-16T06:25:31.730Z,3.26
2017-12-16T06:27:59.278Z,3.28
2017-12-16T06:30:26.812Z,3.27
2017-12-16T06:32:54.346Z,3.30
2017-12-16T06:35:21.919Z,3.28
2017-12-16T06:37:49.466Z,3.17
2017-12-16T06:40:17.015Z,3.15
2017-12-16T06:42:44.557Z,3.14
2017-12-16T06:45:12.081Z,3.21
2017-12-16T06:47:39.624Z,3.23
2017-12-16T06:50:07.161Z,3.18
2017-12-16T06:52:34.690Z,3.22
2017-12-16T06:55:02.225Z,3.21
2017-12-16T06:57:29.776Z,3.20
2017-12-16T06:59:57.320Z,3.27
2017-12-16T07:02:24.862Z,3.28
2017-12-16T07:04:52.420Z,3.20
2017-12-16T07:07:19.979Z,3.23
2017-12-16T07:09:47.534Z,3.32
2017-12-16T07:12:15.067Z,3.36
2017-12-16T07:14:42.629Z,3.37
2017-12-16T07:17:10.169Z,3.41
2017-12-16T07:19:37.698Z,3.33
2017-12-16T07:22:05.281Z,3.31
2017-12-16T07:24:32.830Z,3.32
2017-12-16T07:27:00.377Z,3.31
2017-12-16T07:29:27.910Z,3.24
2017-12-16T07:31:55.457Z,3.28
2017-12-16T07:34:23.002Z,3.20
2017-12-16T07:36:50.542Z,3.30
2017-12-16T07:39:18.094Z,3.33
2017-12-16T07:41:45.642Z,3.39
2017-12-16T07:44:13.191Z,3.36
2017-12-16T07:46:40.742Z,3.36
2017-12-16T07:49:08.301Z,3.39
2017-12-16T07:51:35.865Z,3.42
2017-12-16T07:54:03.411Z,3.41
2017-12-16T07:56:30.954Z,3.41
2017-12-16T07:58:58.511Z,3.49
2017-12-16T08:01:26.062Z,3.53
2017-12-16T08:03:53.598Z,3.45
2017-12-16T08:06:21.143Z,3.45
2017-12-16T08:08:48.691Z,3.46
2017-12-16T08:11:16.235Z,3.49
2017-12-16T08:13:43.787Z,3.41
2017-12-16T08:16:11.339Z,3.47
2017-12-16T08:18:38.900Z,3.44
2017-12-16T08:21:06.447Z,3.64
2017-12-16T08:23:33.990Z,3.87
2017-12-16T08:26:01.529Z,4.06
2017-12-16T08:28:29.087Z,4.12
2017-12-16T08:30:56.628Z,4.18
2017-12-16T08:33:24.186Z,4.59
2017-12-16T08:35:51.735Z,4.74
2017-12-16T08:38:19.291Z,4.53
2017-12-16T08:40:46.843Z,4.49
2017-12-16T08:43:14.405Z,4.46
2017-12-16T08:45:41.951Z,4.41
2017-12-16T08:48:09.499Z,4.42
2017-12-16T08:50:37.051Z,4.47
2017-12-16T08:53:04.597Z,4.35
2017-12-16T08:55:32.154Z,4.22
2017-12-16T08:57:59.732Z,4.32
2017-12-16T09:00:27.289Z,4.32
2017-12-16T09:02:54.850Z,4.17
2017-12-16T09:05:22.390Z,4.26
2017-12-16T09:07:49.946Z,4.14
2017-12-16T09:10:17.815Z,4.15
2017-12-16T09:12:45.748Z,4.21
2017-12-16T09:15:13.299Z,4.19
2017-12-16T09:17:40.830Z,4.05
2017-12-16T09:20:08.594Z,4.17
2017-12-16T09:22:36.142Z,4.28
2017-12-16T09:25:03.707Z,4.28
2017-12-16T09:27:31.248Z,4.30
2017-12-16T09:29:58.791Z,4.19
2017-12-16T09:32:26.325Z,4.43
2017-12-16T09:34:53.875Z,4.58
2017-12-16T09:37:21.436Z,4.81
2017-12-16T09:39:48.989Z,4.93
2017-12-16T09:42:16.539Z,4.94
2017-12-16T09:44:44.082Z,5.08
2017-12-16T09:47:11.614Z,5.04
2017-12-16T09:49:39.155Z,5.02
2017-12-16T09:52:06.760Z,4.98
2017-12-16T09:54:36.500Z,4.89
2017-12-16T09:57:06.223Z,4.70
2017-12-16T09:59:33.945Z,4.68
2017-12-16T10:02:01.564Z,4.73
2017-12-16T10:04:29.642Z,4.37
2017-12-16T10:06:57.189Z,4.59
2017-12-16T10:09:24.749Z,4.54
2017-12-16T10:11:52.273Z,4.51
2017-12-16T10:14:19.806Z,4.49
2017-12-16T10:16:47.333Z,4.61
2017-12-16T10:19:14.863Z,4.62
2017-12-16T10:21:42.393Z,4.44
2017-12-16T10:24:09.911Z,4.51
2017-12-16T10:26:37.445Z,4.25
2017-12-16T10:29:04.982Z,4.23
2017-12-16T10:31:32.620Z,4.19
2017-12-16T10:34:00.144Z,4.41
2017-12-16T10:36:27.676Z,4.48
2017-12-16T10:38:55.202Z,4.37
2017-12-16T10:41:22.726Z,4.01
2017-12-16T10:43:50.271Z,4.16
2017-12-16T10:46:17.798Z,4.19
2017-12-16T10:48:45.324Z,4.05
2017-12-16T10:51:12.882Z,4.09
2017-12-16T10:53:40.411Z,3.98
2017-12-16T10:56:07.932Z,4.04
2017-12-16T10:58:35.511Z,3.86
2017-12-16T11:01:03.050Z,3.98
2017-12-16T11:03:30.574Z,3.84
2017-12-16T11:05:58.107Z,3.89
2017-12-16T11:08:25.627Z,3.91
2017-12-16T11:10:53.152Z,4.00
2017-12-16T11:13:20.678Z,4.01
2017-12-16T11:15:48.250Z,3.91
2017-12-16T11:18:15.825Z,3.86
2017-12-16T11:20:43.364Z,4.00
2017-12-16T11:23:10.906Z,3.96
2017-12-16T11:25:38.462Z,3.88
2017-12-16T11:28:05.988Z,3.93
2017-12-16T11:30:33.502Z,3.82
2017-12-16T11:33:01.032Z,3.95
2017-12-16T11:35:29.410Z,3.81
2017-12-16T11:37:56.938Z,3.91
2017-12-16T11:40:24.459Z,3.95
2017-12-16T11:42:51.987Z,3.90
2017-12-16T11:45:20.394Z,4.01
2017-12-16T11:47:48.211Z,3.98
2017-12-16T11:50:15.750Z,4.07
2017-12-16T11:52:43.278Z,4.05
2017-12-16T11:55:10.810Z,4.04
2017-12-16T11:57:38.337Z,4.07
2017-12-16T12:00:06.779Z,4.08
2017-12-16T12:02:34.306Z,3.99
2017-12-16T12:05:01.833Z,4.14
2017-12-16T12:07:29.359Z,4.10
2017-12-16T12:09:57.777Z,4.10
2017-12-16T12:12:25.847Z,4.15
2017-12-16T12:14:53.365Z,4.12
2017-12-16T12:17:20.881Z,4.13
2017-12-16T12:19:48.407Z,4.09
2017-12-16T12:22:15.947Z,4.10
2017-12-16T12:24:43.468Z,4.01
2017-12-16T12:27:10.985Z,4.03
2017-12-16T12:29:38.504Z,4.00
2017-12-16T12:32:06.017Z,4.01
2017-12-16T12:34:33.534Z,4.06
2017-12-16T12:37:01.061Z,3.98
2017-12-16T12:39:28.589Z,3.93
2017-12-16T12:41:56.109Z,3.97
2017-12-16T12:44:23.642Z,3.90
2017-12-16T12:46:51.166Z,3.96
2017-12-16T12:49:18.685Z,3.87
2017-12-16T12:51:46.251Z,3.87
2017-12-16T12:54:13.782Z,3.87
2017-12-16T12:56:41.305Z,3.86
2017-12-16T12:59:08.865Z,3.78
2017-12-16T13:01:36.412Z,3.77
2017-12-16T13:04:03.970Z,3.64
2017-12-16T13:06:31.500Z,3.61
2017-12-16T13:08:59.026Z,3.59
2017-12-16T13:11:26.548Z,3.56
2017-12-16T13:13:54.070Z,3.69
2017-12-16T13:16:21.593Z,3.60
2017-12-16T13:18:49.109Z,3.69
2017-12-16T13:21:16.645Z,3.68
2017-12-16T13:23:44.201Z,3.58
2017-12-16T13:26:11.756Z,3.68
2017-12-16T13:28:39.277Z,3.73
2017-12-16T13:31:06.798Z,3.66
2017-12-16T13:33:34.317Z,3.69
2017-12-16T13:36:01.834Z,3.72
2017-12-16T13:38:29.349Z,3.74
2017-12-16T13:40:56.874Z,3.69
2017-12-16T13:43:24.417Z,3.71
2017-12-16T13:45:51.963Z,3.69
2017-12-16T13:48:19.499Z,3.69
2017-12-16T13:50:47.027Z,3.55
2017-12-16T13:53:14.541Z,3.51
2017-12-16T13:55:42.058Z,3.65
2017-12-16T13:58:10.168Z,3.64
2017-12-16T14:00:37.702Z,3.66
2017-12-16T14:03:05.597Z,3.63
2017-12-16T14:05:33.126Z,3.62
2017-12-16T14:08:00.667Z,3.57
2017-12-16T14:10:28.225Z,3.47
2017-12-16T14:12:55.779Z,3.65
2017-12-16T14:15:23.304Z,3.64
2017-12-16T14:17:50.825Z,3.57
2017-12-16T14:20:18.357Z,3.61
2017-12-16T14:22:45.876Z,3.62
2017-12-16T14:25:13.933Z,3.65
2017-12-16T14:27:41.456Z,3.61
2017-12-16T14:30:08.990Z,3.67
2017-12-16T14:32:36.530Z,3.60
2017-12-16T14:35:04.838Z,3.61
2017-12-16T14:37:32.362Z,3.60
2017-12-16T14:39:59.885Z,3.62
2017-12-16T14:42:27.417Z,3.62
2017-12-16T14:44:54.990Z,3.64
2017-12-16T14:47:22.509Z,3.56
2017-12-16T14:49:50.047Z,3.55
2017-12-16T14:52:17.686Z,3.63
2017-12-16T16:16:42.165Z,3.54
2017-12-16T16:19:09.682Z,3.54
2017-12-16T16:21:38.130Z,3.68
2017-12-16T16:24:06.105Z,3.72
2017-12-16T16:26:33.629Z,3.77
2017-12-16T16:29:01.154Z,3.76
2017-12-16T16:31:28.675Z,3.77
2017-12-16T16:33:56.208Z,3.78
2017-12-16T16:36:23.734Z,3.84
2017-12-16T16:38:51.252Z,3.83
2017-12-16T16:41:18.778Z,3.84
2017-12-16T16:43:46.311Z,3.82
2017-12-16T16:46:13.849Z,3.83
2017-12-16T16:48:41.369Z,3.80
2017-12-16T16:51:08.885Z,3.87
2017-12-16T16:53:36.409Z,3.83
2017-12-16T16:56:03.939Z,3.83
2017-12-16T16:58:31.479Z,3.79
2017-12-16T17:00:58.992Z,3.78
2017-12-16T17:03:26.539Z,3.85
2017-12-16T17:05:54.571Z,3.83
2017-12-16T17:08:22.112Z,3.80
2017-12-16T17:10:49.669Z,3.75
2017-12-16T17:13:17.220Z,3.79
2017-12-16T17:15:44.784Z,3.76
2017-12-16T17:18:12.334Z,3.74
2017-12-16T17:20:39.865Z,3.75
2017-12-16T17:23:07.394Z,3.77
2017-12-16T17:25:35.258Z,3.80
2017-12-16T17:28:02.816Z,3.75
2017-12-16T17:30:30.382Z,3.73
2017-12-16T17:32:57.935Z,3.71
2017-12-16T17:35:25.465Z,3.70
2017-12-16T17:37:52.990Z,3.71
2017-12-16T17:40:20.520Z,3.74
2017-12-16T17:42:48.039Z,3.74
2017-12-16T17:45:15.599Z,3.70
2017-12-16T17:47:43.167Z,3.73
2017-12-16T17:50:10.698Z,3.59
2017-12-16T17:52:38.222Z,3.63
2017-12-16T17:55:05.739Z,3.58
2017-12-16T17:57:33.261Z,3.63
2017-12-16T18:00:00.842Z,3.61
2017-12-16T18:02:28.413Z,3.58
2017-12-16T18:04:55.955Z,3.56
2017-12-16T18:07:23.485Z,3.64
2017-12-16T18:09:51.035Z,3.62
2017-12-16T18:12:18.574Z,3.62
2017-12-16T18:14:46.115Z,3.59
2017-12-16T18:17:13.646Z,3.65
2017-12-16T18:19:41.167Z,3.58
2017-12-16T18:22:08.681Z,3.64
2017-12-16T18:24:36.214Z,3.60
2017-12-16T18:27:03.790Z,3.59
2017-12-16T18:29:31.328Z,3.58
2017-12-16T18:31:58.891Z,3.62
2017-12-16T18:34:26.452Z,3.57
2017-12-16T18:36:53.998Z,3.57
2017-12-16T18:39:21.539Z,3.56
2017-12-16T18:41:49.058Z,3.57
2017-12-16T18:44:16.581Z,3.56
2017-12-16T18:46:44.102Z,3.54
2017-12-16T18:49:11.661Z,3.58
2017-12-16T18:51:39.198Z,3.57
2017-12-16T18:54:06.737Z,3.60
2017-12-16T18:56:34.262Z,3.61
2017-12-16T18:59:01.782Z,3.57
2017-12-16T19:01:29.309Z,3.61
2017-12-16T19:03:56.857Z,3.64
2017-12-16T19:06:24.454Z,3.62
2017-12-16T19:08:51.982Z,3.58
2017-12-16T19:11:19.513Z,3.64
2017-12-16T19:13:47.043Z,3.63
2017-12-16T19:16:14.629Z,3.63
2017-12-16T19:18:42.160Z,3.62
2017-12-16T19:21:09.689Z,3.63
2017-12-16T19:23:37.221Z,3.62
2017-12-16T19:26:04.777Z,3.62
2017-12-16T19:28:32.297Z,3.65
2017-12-16T19:30:59.824Z,3.65
2017-12-16T19:33:27.347Z,3.65
2017-12-16T19:35:54.908Z,3.68
2017-12-16T19:38:22.443Z,3.65
2017-12-16T19:40:49.962Z,3.64
2017-12-16T19:43:17.486Z,3.68
2017-12-16T19:45:45.036Z,3.67
2017-12-16T19:48:12.568Z,3.67
2017-12-16T19:50:40.098Z,3.63
2017-12-16T19:53:07.610Z,3.66
2017-12-16T19:55:35.190Z,3.66
2017-12-16T19:58:02.714Z,3.64
2017-12-16T20:00:30.260Z,3.61
2017-12-16T20:02:57.790Z,3.66
2017-12-16T20:05:25.317Z,3.65
2017-12-16T20:07:52.890Z,3.62
2017-12-16T20:10:20.427Z,3.62
2017-12-16T20:12:47.954Z,3.50
2017-12-16T20:15:15.494Z,3.49
2017-12-16T20:17:43.056Z,3.44
2017-12-16T20:20:10.584Z,3.35
2017-12-16T20:22:38.115Z,3.29
2017-12-16T20:25:05.644Z,3.28
2017-12-16T20:27:33.174Z,3.22
2017-12-16T20:30:00.722Z,3.15
2017-12-16T20:32:28.258Z,3.11
2017-12-16T20:34:55.784Z,3.08
2017-12-16T20:37:23.332Z,3.07
2017-12-16T20:39:50.865Z,3.06
2017-12-16T20:42:18.390Z,3.01
2017-12-16T20:44:45.913Z,2.98
2017-12-16T20:47:13.433Z,2.90
2017-12-16T20:49:40.958Z,2.88
2017-12-16T20:52:08.481Z,2.83
2017-12-16T20:54:36.011Z,2.81
2017-12-16T20:57:03.583Z,2.77
2017-12-16T20:59:31.096Z,2.76
2017-12-16T21:01:58.619Z,2.75
2017-12-16T21:04:26.166Z,2.80
2017-12-16T21:06:53.737Z,2.84
2017-12-16T21:09:21.296Z,2.87
2017-12-16T21:11:48.836Z,2.90
2017-12-16T21:14:16.370Z,2.97
2017-12-16T21:16:43.897Z,3.02
2017-12-16T21:19:11.425Z,3.07
2017-12-16T21:21:38.946Z,3.11
2017-12-16T21:24:06.479Z,3.13
2017-12-16T21:26:34.023Z,3.17
2017-12-16T21:29:01.646Z,3.22
2017-12-16T21:31:29.501Z,3.24
2017-12-16T21:33:57.176Z,3.26
2017-12-16T21:36:24.843Z,3.30
2017-12-16T21:38:52.536Z,3.32
2017-12-16T21:41:20.221Z,3.38
2017-12-16T21:43:47.947Z,3.38
2017-12-16T21:46:15.656Z,3.43
2017-12-16T21:48:43.499Z,3.44
2017-12-16T21:51:11.172Z,3.47
2017-12-16T21:53:38.790Z,3.52
2017-12-16T21:56:06.410Z,3.52
2017-12-16T21:58:33.982Z,3.57
2017-12-16T22:01:03.108Z,3.58
2017-12-16T22:03:32.618Z,3.56
2017-12-16T22:06:01.013Z,3.63
2017-12-16T22:08:29.218Z,3.62
2017-12-16T22:10:57.008Z,3.61
2017-12-16T22:13:24.743Z,3.59
2017-12-16T22:15:52.462Z,3.64
2017-12-16T22:18:20.291Z,3.66
2017-12-16T22:20:48.112Z,3.70
2017-12-16T22:23:15.759Z,3.72
2017-12-16T22:25:43.455Z,3.69
2017-12-16T22:28:11.051Z,3.72
2017-12-16T22:30:38.717Z,3.69
2017-12-16T22:33:06.322Z,3.73
2017-12-16T22:35:33.960Z,3.75
2017-12-16T22:38:01.534Z,3.78
2017-12-16T22:40:29.178Z,3.78
2017-12-16T22:42:56.992Z,3.76
2017-12-16T22:45:24.646Z,3.79
2017-12-16T22:47:52.310Z,3.80
2017-12-16T22:50:19.919Z,3.89
2017-12-16T22:52:47.552Z,3.85
2017-12-16T22:55:15.151Z,3.81
2017-12-16T22:57:42.689Z,3.80
2017-12-16T23:00:10.418Z,3.85
2017-12-16T23:02:38.094Z,3.82
2017-12-16T23:05:05.811Z,3.77
2017-12-16T23:07:33.598Z,3.81
2017-12-16T23:10:01.170Z,3.83
2017-12-16T23:12:28.837Z,3.84
2017-12-16T23:14:56.462Z,3.83
2017-12-16T23:17:24.106Z,3.79
2017-12-16T23:19:52.105Z,3.77
2017-12-16T23:22:22.459Z,3.83
2017-12-16T23:24:50.142Z,3.82
2017-12-16T23:27:17.690Z,3.81
2017-12-16T23:29:45.332Z,3.79
2017-12-16T23:32:14.299Z,3.79
2017-12-16T23:34:44.109Z,3.82
2017-12-16T23:37:15.272Z,3.80
2017-12-16T23:39:45.013Z,3.80
2017-12-16T23:42:14.362Z,3.82
2017-12-16T23:44:42.953Z,3.79
2017-12-16T23:47:10.801Z,3.76
2017-12-16T23:49:38.640Z,3.78
2017-12-16T23:52:06.400Z,3.75
2017-12-16T23:54:35.655Z,3.78
2017-12-16T23:57:04.875Z,3.79
